Time;durP1;ratioP1;P1;durP2;ratioP2;P2;SDS_P1;SDS_P2;PMS_P1;PMS_P2;Temp;Humidity;BMP_temperature;BMP_pressure;BME280_temperature;BME280_humidity;BME280_pressure;Samples;Min_cycle;Max_cycle;Signal;HPM_P1;HPM_P2
2022/11/04 00:02:03;;;;;;;9.80;4.72;;;11.10;99.90;;;;;;5079786;28;20108;-73
2022/11/04 00:04:29;;;;;;;10.90;4.68;;;11.10;99.90;;;;;;5069735;28;20501;-72
2022/11/04 00:06:55;;;;;;;8.93;4.15;;;11.10;99.90;;;;;;5094535;28;20157;-73
2022/11/04 00:09:24;;;;;;;9.23;4.40;;;11.10;99.90;;;;;;5096915;28;20391;-72
2022/11/04 00:14:35;;;;;;;10.23;3.90;;;11.10;99.90;;;;;;5105972;28;20061;-74
2022/11/04 00:17:34;;;;;;;13.57;4.78;;;11.10;99.90;;;;;;5083374;27;20046;-72
2022/11/04 00:33:24;;;;;;;13.68;4.47;;;11.00;99.90;;;;;;5103210;28;20051;-73
2022/11/04 00:33:48;;;;;;;6.55;4.25;;;11.00;99.90;;;;;;5081335;28;20090;-72
2022/11/04 00:36:14;;;;;;;8.52;4.22;;;11.00;99.90;;;;;;5070251;28;20054;-72
2022/11/04 00:38:40;;;;;;;11.57;4.78;;;11.00;99.90;;;;;;5090126;28;20083;-73
2022/11/04 00:41:24;;;;;;;9.43;4.15;;;11.00;99.90;;;;;;5094894;27;20106;-72
2022/11/04 00:43:51;;;;;;;9.75;4.72;;;11.00;99.90;;;;;;5097991;28;20012;-72
2022/11/04 00:46:17;;;;;;;8.52;4.22;;;11.00;99.90;;;;;;5103057;28;20093;-71
2022/11/04 00:48:43;;;;;;;11.55;5.60;;;11.00;99.90;;;;;;5103972;27;20394;-72
2022/11/04 00:51:08;;;;;;;15.55;5.68;;;11.00;99.90;;;;;;5100005;28;20071;-71
2022/11/04 00:53:34;;;;;;;9.95;4.97;;;11.00;99.90;;;;;;5087790;28;20023;-72
2022/11/04 00:56:00;;;;;;;12.90;4.78;;;11.00;99.90;;;;;;5103622;28;20036;-72
2022/11/04 00:58:27;;;;;;;7.15;4.50;;;11.00;99.90;;;;;;5095538;28;20015;-73
2022/11/04 01:00:53;;;;;;;9.60;4.47;;;11.00;99.90;;;;;;5090907;28;20027;-72
2022/11/04 01:03:18;;;;;;;9.40;4.03;;;11.00;99.90;;;;;;5099113;28;20031;-72
2022/11/04 01:05:44;;;;;;;11.82;4.53;;;11.00;99.90;;;;;;5104486;28;20065;-72
2022/11/04 01:08:10;;;;;;;9.52;4.78;;;11.00;99.90;;;;;;5084490;28;20053;-73
2022/11/04 01:10:43;;;;;;;9.73;4.75;;;11.00;99.90;;;;;;5107749;28;20027;-72
2022/11/04 01:13:10;;;;;;;9.52;4.75;;;11.00;99.90;;;;;;5108145;27;20047;-73
2022/11/04 01:15:36;;;;;;;10.80;4.22;;;11.00;99.90;;;;;;5086142;28;20058;-74
2022/11/04 01:18:03;;;;;;;13.00;4.45;;;11.00;99.90;;;;;;5103586;27;20424;-72
2022/11/04 01:20:28;;;;;;;6.93;4.20;;;11.00;99.90;;;;;;5099912;28;20031;-72
2022/11/04 01:22:54;;;;;;;9.40;4.57;;;11.10;99.90;;;;;;5104099;28;20031;-73
2022/11/04 01:25:20;;;;;;;8.07;3.58;;;11.10;99.90;;;;;;5112968;27;20047;-72
2022/11/04 01:27:45;;;;;;;6.45;4.13;;;11.10;99.90;;;;;;5113962;27;20103;-72
2022/11/04 01:30:11;;;;;;;9.77;4.25;;;11.10;99.90;;;;;;5108748;28;20040;-73
2022/11/04 01:32:37;;;;;;;10.07;4.53;;;11.10;99.90;;;;;;5107531;27;22540;-73
2022/11/04 01:35:03;;;;;;;9.80;4.57;;;11.10;99.90;;;;;;5092158;27;20035;-73
2022/11/04 01:37:29;;;;;;;8.70;4.40;;;11.10;99.90;;;;;;5108975;28;20399;-73
2022/11/04 01:39:54;;;;;;;10.68;4.50;;;11.10;99.90;;;;;;5090854;28;20032;-73
2022/11/04 01:42:21;;;;;;;8.30;4.15;;;11.10;99.90;;;;;;5105347;27;20035;-73
2022/11/04 01:44:56;;;;;;;8.50;4.18;;;11.10;99.90;;;;;;5106127;28;20049;-73
2022/11/04 01:47:29;;;;;;;10.90;4.72;;;11.10;99.90;;;;;;5095779;28;21204;-73
2022/11/04 01:50:05;;;;;;;8.70;4.28;;;11.10;99.90;;;;;;5100620;27;20031;-72
2022/11/04 01:52:57;;;;;;;8.30;4.32;;;11.10;99.90;;;;;;5105329;27;20111;-73
2022/11/04 01:55:29;;;;;;;9.27;4.95;;;11.10;99.90;;;;;;5094414;27;20031;-73
2022/11/04 01:58:00;;;;;;;9.50;4.45;;;11.10;99.90;;;;;;5097226;28;20020;-73
2022/11/04 02:00:25;;;;;;;8.70;4.32;;;11.10;99.90;;;;;;5097541;28;20027;-72
2022/11/04 02:03:06;;;;;;;10.77;4.40;;;11.10;99.90;;;;;;5104955;28;20032;-72
2022/11/04 02:05:32;;;;;;;11.18;4.82;;;11.10;99.90;;;;;;5106513;27;20096;-72
2022/11/04 02:08:01;;;;;;;9.20;4.90;;;11.10;99.90;;;;;;5082223;27;20069;-72
2022/11/04 02:10:29;;;;;;;13.52;4.55;;;11.10;99.90;;;;;;5105090;27;20055;-72
2022/11/04 02:12:56;;;;;;;6.90;4.18;;;11.20;99.90;;;;;;5099552;28;20102;-72
2022/11/04 02:15:48;;;;;;;11.82;4.43;;;11.20;99.90;;;;;;5099719;28;20404;-72
2022/11/04 02:18:51;;;;;;;8.68;3.67;;;11.10;99.90;;;;;;5098016;27;20517;-73
2022/11/04 02:21:34;;;;;;;12.15;4.45;;;11.20;99.90;;;;;;5106701;27;20046;-72
2022/11/04 02:24:32;;;;;;;8.27;4.70;;;11.20;99.90;;;;;;5084120;28;20047;-72
2022/11/04 02:27:29;;;;;;;7.90;4.43;;;11.10;99.90;;;;;;5108635;27;20514;-72
2022/11/04 02:30:03;;;;;;;9.43;4.25;;;11.10;99.90;;;;;;5106303;27;20551;-72
2022/11/04 02:32:39;;;;;;;7.72;4.20;;;11.10;99.90;;;;;;5082205;28;20028;-71
2022/11/04 02:35:20;;;;;;;9.93;4.18;;;11.10;99.90;;;;;;5100026;27;20040;-72
2022/11/04 02:38:11;;;;;;;10.07;5.07;;;11.10;99.90;;;;;;5095943;28;20039;-71
2022/11/04 02:41:13;;;;;;;8.18;4.78;;;11.10;99.90;;;;;;5101037;27;20034;-72
2022/11/04 02:44:03;;;;;;;8.18;4.93;;;11.10;99.90;;;;;;5056679;27;20040;-72
2022/11/04 02:46:36;;;;;;;6.85;4.47;;;11.10;99.90;;;;;;5099089;28;20020;-72
2022/11/04 02:49:13;;;;;;;9.05;4.35;;;11.10;99.90;;;;;;5102651;27;20036;-72
2022/11/04 02:51:48;;;;;;;8.93;4.43;;;11.10;99.90;;;;;;5099849;27;20059;-71
2022/11/04 02:54:25;;;;;;;10.98;4.45;;;11.10;99.90;;;;;;5103130;28;20060;-72
2022/11/04 02:56:55;;;;;;;10.23;4.75;;;11.10;99.90;;;;;;5098977;27;20057;-71
2022/11/04 02:59:27;;;;;;;7.55;4.18;;;11.10;99.90;;;;;;5068221;28;20093;-71
2022/11/04 03:01:54;;;;;;;7.15;4.40;;;11.10;99.90;;;;;;5100447;28;20416;-71
2022/11/04 03:04:44;;;;;;;9.20;4.38;;;11.10;99.90;;;;;;5099205;27;20028;-71
2022/11/04 03:07:13;;;;;;;7.68;4.18;;;11.20;99.90;;;;;;5099680;27;20034;-73
2022/11/04 03:09:45;;;;;;;6.85;4.50;;;11.20;99.90;;;;;;5100519;27;20092;-72
2022/11/04 03:12:14;;;;;;;10.73;4.97;;;11.20;99.90;;;;;;5097379;28;20034;-71
2022/11/04 03:14:52;;;;;;;8.52;4.72;;;11.20;99.90;;;;;;5088990;28;20053;-73
2022/11/04 03:17:30;;;;;;;9.45;4.53;;;11.20;99.90;;;;;;5066896;28;20024;-72
2022/11/04 03:19:58;;;;;;;7.45;4.45;;;11.30;99.90;;;;;;5079406;28;20020;-72
2022/11/04 03:22:29;;;;;;;7.53;4.20;;;11.30;99.90;;;;;;5087105;28;20024;-72
2022/11/04 03:24:56;;;;;;;11.65;5.03;;;11.30;99.90;;;;;;5106082;27;20031;-71
2022/11/04 03:27:37;;;;;;;8.75;4.97;;;11.30;99.90;;;;;;5099640;28;20064;-72
2022/11/04 03:30:05;;;;;;;8.88;4.82;;;11.20;99.90;;;;;;5102996;28;20028;-72
2022/11/04 03:33:00;;;;;;;9.82;5.07;;;11.20;99.90;;;;;;5089293;28;20035;-72
2022/11/04 03:35:26;;;;;;;12.57;5.53;;;11.20;99.90;;;;;;5081494;28;20039;-72
2022/11/04 03:37:52;;;;;;;10.07;4.63;;;11.20;99.90;;;;;;5103507;27;20035;-72
2022/11/04 03:40:19;;;;;;;9.73;4.85;;;11.20;99.90;;;;;;5101879;28;20031;-72
2022/11/04 03:42:55;;;;;;;10.02;5.03;;;11.20;99.90;;;;;;5100002;27;20023;-72
2022/11/04 03:45:22;;;;;;;7.38;4.85;;;11.30;99.90;;;;;;5095087;28;20101;-72
2022/11/04 03:47:49;;;;;;;7.65;4.72;;;11.30;99.90;;;;;;5102559;27;20020;-72
2022/11/04 03:50:34;;;;;;;7.07;4.55;;;11.30;99.90;;;;;;5091516;28;20086;-72
2022/11/04 03:53:00;;;;;;;9.60;4.97;;;11.30;99.90;;;;;;5097896;27;20035;-72
2022/11/04 03:55:45;;;;;;;8.82;5.68;;;11.30;99.90;;;;;;5105864;27;20027;-72
2022/11/04 03:58:29;;;;;;;12.65;5.60;;;11.30;99.90;;;;;;5082394;28;20373;-72
2022/11/04 04:01:26;;;;;;;7.28;4.78;;;11.30;99.90;;;;;;5102488;27;20076;-71
2022/11/04 04:04:02;;;;;;;13.13;7.00;;;11.30;99.90;;;;;;5068767;28;20056;-71
2022/11/04 04:06:32;;;;;;;12.65;5.50;;;11.30;99.90;;;;;;5084049;28;20035;-71
2022/11/04 04:09:28;;;;;;;9.40;5.70;;;11.30;99.90;;;;;;5080054;28;20080;-71
2022/11/04 04:12:00;;;;;;;11.75;6.00;;;11.30;99.90;;;;;;5100274;27;20035;-73
2022/11/04 04:14:40;;;;;;;10.30;5.97;;;11.40;99.90;;;;;;5094842;27;20456;-72
2022/11/04 04:17:32;;;;;;;10.43;5.80;;;11.40;99.90;;;;;;5081846;28;20047;-73
2022/11/04 04:20:09;;;;;;;8.45;5.97;;;11.40;99.90;;;;;;5103103;27;20023;-72
2022/11/04 04:22:51;;;;;;;7.40;5.30;;;11.50;99.90;;;;;;5104743;27;20499;-72
2022/11/04 04:28:04;;;;;;;6.30;4.30;;;11.50;99.90;;;;;;5088108;28;20024;-72
2022/11/04 04:30:30;;;;;;;8.20;4.70;;;11.50;99.90;;;;;;5103282;27;20035;-73
2022/11/04 04:33:04;;;;;;;7.53;4.40;;;11.50;99.90;;;;;;5095772;27;20357;-73
2022/11/04 04:35:48;;;;;;;6.07;3.70;;;11.50;99.90;;;;;;5078118;28;20395;-73
2022/11/04 04:47:09;;;;;;;4.43;3.08;;;11.50;99.90;;;;;;5106718;27;20032;-73
2022/11/04 04:49:35;;;;;;;4.63;2.78;;;11.50;99.90;;;;;;5087333;28;20023;-72
2022/11/04 04:52:06;;;;;;;3.60;2.00;;;11.50;99.90;;;;;;5097532;28;20483;-73
2022/11/04 04:54:32;;;;;;;2.88;2.10;;;11.50;99.90;;;;;;5102642;28;20042;-73
2022/11/04 04:56:57;;;;;;;2.72;1.98;;;11.50;99.90;;;;;;5093158;27;20032;-72
2022/11/04 04:59:23;;;;;;;3.90;2.25;;;11.50;99.90;;;;;;5096091;28;20023;-72
2022/11/04 05:01:49;;;;;;;4.70;2.17;;;11.50;99.90;;;;;;5073707;28;20024;-73
2022/11/04 05:04:14;;;;;;;3.35;1.90;;;11.50;99.90;;;;;;5103368;28;20132;-73
2022/11/04 05:06:40;;;;;;;2.67;1.90;;;11.50;99.90;;;;;;5082892;28;20106;-73
2022/11/04 05:09:06;;;;;;;3.80;1.83;;;11.50;99.90;;;;;;5086845;28;20055;-73
2022/11/04 05:11:32;;;;;;;3.20;1.80;;;11.50;99.90;;;;;;5085961;28;20103;-73
2022/11/04 05:13:57;;;;;;;4.05;2.13;;;11.50;99.90;;;;;;5081940;28;20036;-74
2022/11/04 05:16:23;;;;;;;3.00;1.67;;;11.50;99.90;;;;;;5097504;28;20028;-73
2022/11/04 05:18:51;;;;;;;2.13;1.58;;;11.50;99.90;;;;;;5104110;28;20088;-73
2022/11/04 05:21:16;;;;;;;3.17;1.70;;;11.50;99.90;;;;;;5097441;28;20067;-73
2022/11/04 05:23:42;;;;;;;4.28;1.95;;;11.60;99.90;;;;;;5094555;28;20043;-73
2022/11/04 05:26:08;;;;;;;3.58;1.92;;;11.50;99.90;;;;;;5084731;28;20736;-73
2022/11/04 05:28:34;;;;;;;2.50;1.80;;;11.50;99.90;;;;;;5088233;28;20126;-72
2022/11/04 05:31:05;;;;;;;3.67;1.70;;;11.60;99.90;;;;;;5078641;28;20056;-72
2022/11/04 05:33:32;;;;;;;3.35;1.75;;;11.50;99.90;;;;;;5096668;28;20032;-72
2022/11/04 05:36:15;;;;;;;3.38;1.85;;;11.50;99.90;;;;;;5095378;28;20028;-72
2022/11/04 05:38:42;;;;;;;2.28;1.70;;;11.50;99.90;;;;;;5093791;28;20032;-72
2022/11/04 05:41:10;;;;;;;2.65;1.88;;;11.50;99.90;;;;;;5093551;28;20111;-72
2022/11/04 05:43:36;;;;;;;1.98;1.42;;;11.60;99.90;;;;;;5101051;28;20485;-72
2022/11/04 05:46:02;;;;;;;3.00;1.75;;;11.50;99.90;;;;;;5076804;28;20036;-73
2022/11/04 05:48:31;;;;;;;2.97;1.70;;;11.50;99.90;;;;;;5093018;28;20031;-72
2022/11/04 05:50:57;;;;;;;3.63;2.05;;;11.50;99.90;;;;;;5089684;27;20024;-72
2022/11/04 05:53:22;;;;;;;2.75;1.90;;;11.50;99.90;;;;;;5089635;28;20030;-72
2022/11/04 05:55:48;;;;;;;3.03;2.00;;;11.50;99.90;;;;;;5097649;28;20027;-72
2022/11/04 05:58:14;;;;;;;3.65;2.33;;;11.50;99.90;;;;;;5071010;28;20021;-72
2022/11/04 06:00:39;;;;;;;3.15;2.38;;;11.50;99.90;;;;;;5089280;28;20032;-72
2022/11/04 06:03:05;;;;;;;4.38;2.60;;;11.50;99.90;;;;;;5084882;27;20043;-73
2022/11/04 06:05:31;;;;;;;4.53;2.25;;;11.50;99.90;;;;;;5096668;27;20039;-72
2022/11/04 06:07:57;;;;;;;3.58;2.30;;;11.50;99.90;;;;;;5089070;27;20043;-73
2022/11/04 06:10:23;;;;;;;6.95;2.67;;;11.50;99.90;;;;;;5074315;28;20075;-72
2022/11/04 06:12:50;;;;;;;3.58;2.50;;;11.50;99.90;;;;;;5076081;28;20653;-73
2022/11/04 06:15:15;;;;;;;3.75;2.15;;;11.50;99.90;;;;;;5074364;28;20114;-73
2022/11/04 06:17:41;;;;;;;3.88;2.38;;;11.50;99.90;;;;;;5056650;28;20034;-74
2022/11/04 06:20:07;;;;;;;4.40;2.08;;;11.50;99.90;;;;;;5095508;28;20380;-73
2022/11/04 06:22:33;;;;;;;4.10;2.65;;;11.50;99.90;;;;;;5090533;28;21490;-73
2022/11/04 06:24:59;;;;;;;3.63;2.45;;;11.50;99.90;;;;;;5085735;28;20533;-74
2022/11/04 06:27:24;;;;;;;4.88;2.42;;;11.50;99.90;;;;;;5092648;28;20043;-72
2022/11/04 06:29:51;;;;;;;3.95;2.63;;;11.50;99.90;;;;;;5091242;27;20028;-74
2022/11/04 06:32:18;;;;;;;4.88;2.53;;;11.50;99.90;;;;;;5098233;28;20046;-72
2022/11/04 06:34:44;;;;;;;4.05;2.33;;;11.50;99.90;;;;;;5097352;27;20027;-73
2022/11/04 06:37:10;;;;;;;3.65;2.70;;;11.40;99.90;;;;;;5095614;28;20024;-72
2022/11/04 06:39:36;;;;;;;3.38;2.25;;;11.40;99.90;;;;;;5089482;28;20031;-73
2022/11/04 06:42:03;;;;;;;5.20;2.63;;;11.40;99.90;;;;;;5094852;28;20111;-73
2022/11/04 06:44:29;;;;;;;4.40;2.72;;;11.40;99.90;;;;;;5105041;28;20044;-73
2022/11/04 06:46:54;;;;;;;4.57;2.78;;;11.30;99.90;;;;;;5090394;27;20098;-73
2022/11/04 06:49:22;;;;;;;5.35;4.03;;;11.30;99.90;;;;;;5074939;28;20124;-73
2022/11/04 06:51:48;;;;;;;4.35;3.75;;;11.30;99.90;;;;;;5101102;28;20031;-73
2022/11/04 06:54:15;;;;;;;6.00;3.13;;;11.20;99.90;;;;;;5092385;28;20693;-73
2022/11/04 06:56:41;;;;;;;4.72;3.60;;;11.20;99.90;;;;;;5098193;28;20104;-73
2022/11/04 06:59:12;;;;;;;8.60;4.40;;;11.10;99.90;;;;;;5095642;28;20115;-73
2022/11/04 07:01:38;;;;;;;6.45;4.32;;;11.20;99.90;;;;;;5094999;28;20046;-72
2022/11/04 07:04:04;;;;;;;8.25;4.13;;;11.20;99.90;;;;;;5089208;27;20452;-73
2022/11/04 07:06:30;;;;;;;8.45;4.63;;;11.10;99.90;;;;;;5093804;28;20028;-73
2022/11/04 07:08:58;;;;;;;5.65;4.72;;;11.10;99.90;;;;;;5077685;28;20024;-73
2022/11/04 07:11:26;;;;;;;6.55;4.47;;;11.10;99.90;;;;;;5093714;27;20028;-73
2022/11/04 07:13:52;;;;;;;7.78;4.93;;;11.10;99.90;;;;;;5092734;28;20034;-72
2022/11/04 07:16:18;;;;;;;7.45;5.60;;;11.10;99.90;;;;;;5103561;28;20019;-72
2022/11/04 07:18:44;;;;;;;16.17;4.90;;;11.20;99.90;;;;;;5081062;28;20020;-72
2022/11/04 07:21:11;;;;;;;9.52;4.95;;;11.20;99.90;;;;;;5085142;28;20468;-73
2022/11/04 07:23:37;;;;;;;6.32;4.10;;;11.20;99.90;;;;;;5098024;28;20080;-75
2022/11/04 07:26:05;;;;;;;7.43;4.50;;;11.20;99.90;;;;;;5081605;28;20487;-72
2022/11/04 07:28:31;;;;;;;7.93;5.20;;;11.20;99.90;;;;;;5089150;28;20492;-73
2022/11/04 07:30:58;;;;;;;6.60;4.60;;;11.20;99.90;;;;;;5105602;28;20444;-73
2022/11/04 07:33:25;;;;;;;7.70;4.63;;;11.10;99.90;;;;;;5105213;28;20042;-72
2022/11/04 07:35:52;;;;;;;6.68;5.03;;;11.10;99.90;;;;;;5105262;28;20023;-72
2022/11/04 07:38:18;;;;;;;8.85;5.13;;;11.10;99.90;;;;;;5066028;28;20048;-72
2022/11/04 07:40:44;;;;;;;5.95;5.18;;;11.10;99.90;;;;;;5100474;28;20024;-72
2022/11/04 07:43:10;;;;;;;8.43;5.20;;;11.10;99.90;;;;;;5087023;28;20511;-72
2022/11/04 07:45:36;;;;;;;8.63;5.15;;;11.10;99.90;;;;;;5105250;28;20027;-72
2022/11/04 07:48:02;;;;;;;21.83;6.00;;;11.10;99.90;;;;;;5099771;28;20024;-72
2022/11/04 07:50:27;;;;;;;10.98;4.95;;;11.10;99.90;;;;;;5085778;28;20055;-74
2022/11/04 07:52:53;;;;;;;7.38;4.90;;;11.10;99.90;;;;;;5104023;28;20034;-73
2022/11/04 07:55:19;;;;;;;9.80;5.28;;;11.10;99.90;;;;;;5092968;28;20475;-72
2022/11/04 07:57:45;;;;;;;6.65;5.05;;;11.20;99.90;;;;;;5091884;28;20183;-72
2022/11/04 08:00:14;;;;;;;7.82;5.40;;;11.20;99.90;;;;;;5087512;28;20015;-72
2022/11/04 08:02:40;;;;;;;7.60;5.30;;;11.20;99.90;;;;;;5104075;28;20047;-73
2022/11/04 08:05:07;;;;;;;8.43;5.28;;;11.30;99.90;;;;;;5071617;28;20032;-73
2022/11/04 08:07:32;;;;;;;5.90;4.65;;;11.30;99.90;;;;;;5091525;28;20020;-72
2022/11/04 08:09:58;;;;;;;7.43;5.18;;;11.30;99.90;;;;;;5106908;28;20448;-73
2022/11/04 08:12:24;;;;;;;9.73;5.35;;;11.30;99.90;;;;;;5093770;28;20506;-72
2022/11/04 08:14:50;;;;;;;9.60;5.57;;;11.30;99.90;;;;;;5106143;28;20387;-72
2022/11/04 08:17:16;;;;;;;6.80;5.22;;;11.30;99.90;;;;;;5106825;28;20023;-73
2022/11/04 08:19:42;;;;;;;6.25;4.82;;;11.40;99.90;;;;;;5104367;28;20027;-72
2022/11/04 08:22:14;;;;;;;7.15;5.10;;;11.40;99.90;;;;;;5094032;28;20024;-72
2022/11/04 08:24:40;;;;;;;8.63;4.95;;;11.50;99.90;;;;;;5088782;28;20085;-72
2022/11/04 08:27:09;;;;;;;6.97;5.10;;;11.50;99.90;;;;;;5108360;28;20494;-72
2022/11/04 08:29:36;;;;;;;6.60;5.45;;;11.50;99.90;;;;;;5108584;28;20026;-72
2022/11/04 08:32:02;;;;;;;6.20;4.78;;;11.40;99.90;;;;;;5107314;28;20111;-72
2022/11/04 08:34:28;;;;;;;8.07;5.40;;;11.40;99.90;;;;;;5107339;28;20028;-72
2022/11/04 08:36:56;;;;;;;7.05;5.47;;;11.50;99.90;;;;;;5104926;28;20441;-71
2022/11/04 08:39:22;;;;;;;6.53;4.90;;;11.50;99.90;;;;;;5072643;28;20087;-71
2022/11/04 08:41:49;;;;;;;6.07;4.80;;;11.40;99.90;;;;;;5093810;28;20058;-72
2022/11/04 08:44:38;;;;;;;5.72;5.07;;;11.50;99.90;;;;;;5091315;28;20386;-71
2022/11/04 08:47:04;;;;;;;7.28;4.63;;;11.50;99.90;;;;;;5108999;28;20126;-72
2022/11/04 08:49:30;;;;;;;7.45;5.20;;;11.50;99.90;;;;;;5093446;28;20086;-74
2022/11/04 08:51:58;;;;;;;6.65;4.80;;;11.50;99.90;;;;;;5107177;28;20392;-72
2022/11/04 08:54:25;;;;;;;8.77;5.20;;;11.60;99.90;;;;;;5111184;27;20099;-72
2022/11/04 08:56:51;;;;;;;8.50;5.20;;;11.60;99.90;;;;;;5085487;28;20026;-72
2022/11/04 08:59:17;;;;;;;7.72;5.22;;;11.60;99.90;;;;;;5084950;28;20024;-73
2022/11/04 09:01:43;;;;;;;12.20;4.95;;;11.60;99.90;;;;;;5108527;28;20024;-72
2022/11/04 09:04:10;;;;;;;11.05;5.22;;;11.60;99.90;;;;;;5095246;28;20066;-71
2022/11/04 09:06:39;;;;;;;10.63;4.93;;;11.60;99.90;;;;;;5062485;28;20039;-73
2022/11/04 09:09:06;;;;;;;7.63;5.25;;;11.60;99.90;;;;;;5091479;28;20035;-73
2022/11/04 09:11:36;;;;;;;7.53;5.32;;;11.60;99.90;;;;;;5091628;28;20028;-73
2022/11/04 09:14:03;;;;;;;9.68;4.50;;;11.60;99.90;;;;;;5095026;28;20052;-73
2022/11/04 09:16:30;;;;;;;7.03;4.20;;;11.70;99.90;;;;;;5094585;28;20023;-73
2022/11/04 09:18:57;;;;;;;5.25;4.53;;;11.70;99.90;;;;;;5093555;28;20020;-73
2022/11/04 09:21:23;;;;;;;6.88;5.22;;;11.70;99.90;;;;;;5078962;28;20482;-73
2022/11/04 09:23:49;;;;;;;6.32;4.38;;;11.70;99.90;;;;;;5099411;28;20487;-73
2022/11/04 09:26:16;;;;;;;7.60;4.50;;;11.80;99.90;;;;;;5090720;28;20036;-73
2022/11/04 09:28:42;;;;;;;10.10;4.47;;;11.80;99.90;;;;;;5098935;28;20098;-73
2022/11/04 09:31:17;;;;;;;5.65;4.10;;;11.80;99.90;;;;;;5096874;28;20020;-73
2022/11/04 09:33:44;;;;;;;5.75;3.40;;;11.80;99.90;;;;;;5068548;28;20034;-73
2022/11/04 09:36:11;;;;;;;4.68;3.10;;;11.80;99.90;;;;;;5090870;28;20438;-73
2022/11/04 09:38:38;;;;;;;5.20;3.35;;;11.80;99.90;;;;;;5108399;27;20030;-73
2022/11/04 09:41:35;;;;;;;5.43;3.35;;;11.80;99.90;;;;;;5107213;28;20039;-73
2022/11/04 09:44:19;;;;;;;3.75;3.05;;;11.80;99.90;;;;;;5099369;28;20032;-73
2022/11/04 09:46:48;;;;;;;5.50;3.10;;;11.70;99.90;;;;;;5103643;28;20027;-73
2022/11/04 09:49:15;;;;;;;4.20;3.20;;;11.70;99.90;;;;;;5099623;27;20035;-73
2022/11/04 09:51:43;;;;;;;6.28;3.75;;;11.70;99.90;;;;;;5092279;28;20097;-73
2022/11/04 09:54:20;;;;;;;5.38;3.47;;;11.80;99.90;;;;;;5102122;28;20057;-73
2022/11/04 09:56:50;;;;;;;5.32;3.33;;;11.80;99.90;;;;;;5091764;28;20391;-72
2022/11/04 09:59:23;;;;;;;9.73;6.10;;;11.90;99.90;;;;;;5103648;28;20028;-73
2022/11/04 10:02:10;;;;;;;8.23;5.13;;;12.00;99.90;;;;;;5102680;28;20390;-73
2022/11/04 10:05:12;;;;;;;5.85;3.72;;;12.10;99.90;;;;;;5098285;28;20036;-74
2022/11/04 10:08:06;;;;;;;4.50;3.38;;;12.20;99.90;;;;;;5089410;28;20028;-73
2022/11/04 10:10:52;;;;;;;5.10;3.15;;;12.20;99.90;;;;;;5089321;28;20133;-73
2022/11/04 10:13:26;;;;;;;6.40;3.35;;;12.10;99.90;;;;;;5102235;27;20551;-73
2022/11/04 10:16:03;;;;;;;4.90;3.63;;;12.10;99.90;;;;;;5094554;28;20019;-73
2022/11/04 10:18:31;;;;;;;4.47;3.53;;;12.10;99.90;;;;;;5103226;28;20073;-73
2022/11/04 10:21:16;;;;;;;3.60;2.95;;;12.10;99.90;;;;;;5069061;28;20039;-73
2022/11/04 10:24:14;;;;;;;7.38;3.50;;;12.10;99.90;;;;;;5103089;28;20205;-73
2022/11/04 10:26:49;;;;;;;5.45;3.60;;;12.20;99.90;;;;;;5084572;28;20110;-73
2022/11/04 10:29:27;;;;;;;4.13;3.38;;;12.10;99.90;;;;;;5085460;28;20424;-72
2022/11/04 10:31:57;;;;;;;4.70;3.28;;;12.10;99.90;;;;;;5085249;28;20391;-73
2022/11/04 10:35:00;;;;;;;3.70;3.15;;;12.00;99.90;;;;;;5094466;28;20387;-73
2022/11/04 10:37:27;;;;;;;7.95;3.15;;;12.00;99.90;;;;;;5099368;28;20495;-73
2022/11/04 10:40:05;;;;;;;3.83;2.72;;;12.00;99.90;;;;;;5090197;28;20016;-73
2022/11/04 10:42:31;;;;;;;4.28;2.90;;;12.10;99.90;;;;;;5100530;28;20076;-73
2022/11/04 10:44:57;;;;;;;4.15;2.80;;;12.10;99.90;;;;;;5103781;28;20543;-73
2022/11/04 10:47:47;;;;;;;3.90;2.08;;;12.10;99.90;;;;;;5086738;28;20123;-73
2022/11/04 10:50:24;;;;;;;5.05;2.20;;;12.00;99.90;;;;;;5094147;28;20074;-73
2022/11/04 10:52:53;;;;;;;3.50;2.10;;;12.10;99.90;;;;;;5092400;28;20099;-72
2022/11/04 10:55:53;;;;;;;4.15;2.25;;;12.10;99.90;;;;;;5106207;28;20031;-72
2022/11/04 10:58:31;;;;;;;4.95;2.20;;;12.20;99.90;;;;;;5094741;28;20051;-72
2022/11/04 11:00:58;;;;;;;4.47;2.45;;;12.20;99.90;;;;;;5104800;28;20087;-72
2022/11/04 11:03:32;;;;;;;4.97;2.55;;;12.20;99.90;;;;;;5103390;28;20031;-73
2022/11/04 11:06:13;;;;;;;6.07;3.03;;;12.20;99.90;;;;;;5105378;28;20066;-72
2022/11/04 11:08:41;;;;;;;2.40;2.20;;;12.20;99.90;;;;;;5092804;28;20035;-72
2022/11/04 11:11:08;;;;;;;3.85;1.73;;;12.30;99.90;;;;;;5088435;28;20077;-72
2022/11/04 11:13:43;;;;;;;3.45;1.95;;;12.30;99.90;;;;;;5091494;28;20433;-73
2022/11/04 11:16:10;;;;;;;3.70;1.90;;;12.40;99.90;;;;;;5092087;28;20080;-72
2022/11/04 11:18:40;;;;;;;2.55;1.65;;;12.40;99.90;;;;;;5092699;27;20027;-74
2022/11/04 11:21:19;;;;;;;2.50;1.55;;;12.40;99.90;;;;;;5110399;28;20443;-73
2022/11/04 11:23:53;;;;;;;3.05;1.42;;;12.40;99.90;;;;;;5109801;28;20039;-74
2022/11/04 11:26:27;;;;;;;4.15;1.60;;;12.50;99.90;;;;;;5102770;27;20031;-74
2022/11/04 11:28:56;;;;;;;4.25;1.55;;;12.50;99.90;;;;;;5090833;28;20024;-73
2022/11/04 11:31:25;;;;;;;1.52;1.30;;;12.50;99.90;;;;;;5095342;28;20020;-72
2022/11/04 11:34:02;;;;;;;3.20;1.25;;;12.50;99.90;;;;;;5109462;28;20479;-72
2022/11/04 11:36:35;;;;;;;3.47;1.40;;;12.40;99.90;;;;;;5104259;28;20155;-72
2022/11/04 11:39:05;;;;;;;2.53;1.05;;;12.40;99.90;;;;;;5082945;28;20028;-72
2022/11/04 11:41:34;;;;;;;3.10;1.15;;;12.50;99.90;;;;;;5093375;28;20110;-72
2022/11/04 11:44:24;;;;;;;6.13;1.98;;;12.40;99.90;;;;;;5097826;28;20165;-73
2022/11/04 11:47:00;;;;;;;4.60;1.10;;;12.50;99.90;;;;;;5091147;28;20114;-72
2022/11/04 11:49:34;;;;;;;4.95;1.15;;;12.50;99.90;;;;;;5070162;28;20024;-72
2022/11/04 11:52:22;;;;;;;3.13;1.08;;;12.50;99.90;;;;;;5104380;28;20031;-74
2022/11/04 11:54:51;;;;;;;3.45;0.98;;;12.70;99.90;;;;;;5101215;28;20024;-73
2022/11/04 11:57:44;;;;;;;1.63;1.00;;;12.80;99.90;;;;;;5093068;28;20066;-73
2022/11/04 12:00:14;;;;;;;2.83;1.52;;;12.90;99.90;;;;;;5103668;28;20028;-73
2022/11/04 12:02:49;;;;;;;4.20;1.65;;;13.00;99.90;;;;;;5098818;28;20490;-72
2022/11/04 12:05:15;;;;;;;3.00;0.88;;;13.00;99.90;;;;;;5092506;28;20051;-73
2022/11/04 12:07:50;;;;;;;2.40;0.70;;;12.90;99.90;;;;;;5093254;28;20529;-72
2022/11/04 12:10:21;;;;;;;2.85;0.60;;;13.00;99.90;;;;;;5091768;28;20147;-73
2022/11/04 12:12:57;;;;;;;4.95;0.75;;;13.00;99.90;;;;;;5111177;28;20031;-72
2022/11/04 12:15:28;;;;;;;2.90;0.77;;;13.00;99.90;;;;;;5108721;28;20039;-72
2022/11/04 12:18:05;;;;;;;4.22;1.10;;;13.10;99.90;;;;;;5107734;28;20031;-72
2022/11/04 12:20:36;;;;;;;4.28;1.10;;;13.00;99.90;;;;;;5098115;28;20039;-72
2022/11/04 12:23:22;;;;;;;4.57;0.80;;;12.90;99.90;;;;;;5091258;28;20072;-72
2022/11/04 12:25:59;;;;;;;4.80;0.75;;;13.00;99.90;;;;;;5094102;28;20120;-72
2022/11/04 12:28:53;;;;;;;6.25;0.82;;;12.90;99.90;;;;;;5081836;28;20107;-73
2022/11/04 12:31:26;;;;;;;2.30;0.60;;;12.90;99.90;;;;;;5101536;28;20103;-73
2022/11/04 12:34:15;;;;;;;4.57;0.90;;;12.80;99.90;;;;;;5088045;28;20039;-73
2022/11/04 12:36:56;;;;;;;7.25;1.17;;;12.80;99.90;;;;;;5103862;28;20024;-72
2022/11/04 12:39:49;;;;;;;4.13;0.88;;;12.80;99.90;;;;;;5098819;28;20123;-73
2022/11/04 12:42:33;;;;;;;5.35;1.10;;;12.90;99.90;;;;;;5089735;28;20035;-74
2022/11/04 12:44:59;;;;;;;3.67;1.23;;;12.90;99.90;;;;;;5084774;28;20027;-72
2022/11/04 12:47:36;;;;;;;7.20;1.10;;;12.90;99.90;;;;;;5078398;28;20376;-72
2022/11/04 12:50:09;;;;;;;3.00;0.80;;;13.00;99.90;;;;;;5101072;28;20095;-72
2022/11/04 12:53:05;;;;;;;8.48;1.10;;;13.00;99.90;;;;;;5099402;28;20030;-72
2022/11/04 12:55:37;;;;;;;6.20;0.98;;;13.00;99.90;;;;;;5085915;28;20024;-73
2022/11/04 12:58:18;;;;;;;4.45;1.13;;;13.00;99.90;;;;;;5094308;28;20135;-72
2022/11/04 13:00:49;;;;;;;4.97;1.08;;;13.00;99.90;;;;;;5102341;28;20034;-72
2022/11/04 13:03:29;;;;;;;7.40;0.90;;;12.90;99.90;;;;;;5100379;28;20046;-72
2022/11/04 13:06:11;;;;;;;3.85;0.90;;;12.90;99.90;;;;;;5098162;28;20038;-72
2022/11/04 13:08:50;;;;;;;4.32;0.88;;;12.90;99.90;;;;;;5100677;28;20564;-72
2022/11/04 13:12:02;;;;;;;4.18;1.15;;;12.90;99.90;;;;;;5065430;28;20528;-72
2022/11/04 13:14:34;;;;;;;3.85;1.13;;;12.90;99.90;;;;;;5096012;28;20044;-72
2022/11/04 13:17:04;;;;;;;4.85;1.00;;;12.90;99.90;;;;;;5098612;28;20048;-73
2022/11/04 13:19:42;;;;;;;7.67;1.10;;;12.90;99.90;;;;;;5098744;28;20653;-71
2022/11/04 13:22:14;;;;;;;6.00;0.82;;;12.90;99.90;;;;;;5090688;28;20689;-73
2022/11/04 13:24:47;;;;;;;6.35;1.55;;;12.90;99.90;;;;;;5104772;28;20031;-71
2022/11/04 13:27:36;;;;;;;5.50;1.15;;;12.90;99.90;;;;;;5103613;28;20161;-72
2022/11/04 13:30:28;;;;;;;5.20;1.00;;;12.90;99.90;;;;;;5099399;28;20044;-71
2022/11/04 13:33:14;;;;;;;5.22;1.52;;;12.80;99.90;;;;;;5087406;28;20301;-72
2022/11/04 13:35:59;;;;;;;4.95;1.38;;;12.90;99.90;;;;;;5081056;28;20062;-72
2022/11/04 13:38:36;;;;;;;5.20;1.02;;;12.80;99.90;;;;;;5099609;28;20094;-72